sensor_id;sensor_type;location;lat;lon;timestamp;P1;durP1;ratioP1;P2;durP2;ratioP2
48199;SDS011;33990;44.602;10.976;2022-07-06T00:00:15;4.13;;;3.60;;
48199;SDS011;33990;44.602;10.976;2022-07-06T00:02:43;5.00;;;4.25;;
48199;SDS011;33990;44.602;10.976;2022-07-06T00:05:11;4.60;;;3.88;;
48199;SDS011;33990;44.602;10.976;2022-07-06T00:07:38;6.63;;;4.05;;
48199;SDS011;33990;44.602;10.976;2022-07-06T00:10:07;10.18;;;4.05;;
48199;SDS011;33990;44.602;10.976;2022-07-06T00:12:34;4.88;;;3.50;;
48199;SDS011;33990;44.602;10.976;2022-07-06T00:15:01;4.55;;;4.13;;
48199;SDS011;33990;44.602;10.976;2022-07-06T00:17:29;6.38;;;3.58;;
48199;SDS011;33990;44.602;10.976;2022-07-06T00:19:57;6.20;;;4.00;;
48199;SDS011;33990;44.602;10.976;2022-07-06T00:22:24;4.00;;;3.30;;
48199;SDS011;33990;44.602;10.976;2022-07-06T00:24:51;4.57;;;3.65;;
48199;SDS011;33990;44.602;10.976;2022-07-06T00:27:19;3.92;;;3.50;;
48199;SDS011;33990;44.602;10.976;2022-07-06T00:29:46;4.55;;;3.58;;
48199;SDS011;33990;44.602;10.976;2022-07-06T00:32:14;4.97;;;3.95;;
48199;SDS011;33990;44.602;10.976;2022-07-06T00:34:41;4.97;;;4.07;;
48199;SDS011;33990;44.602;10.976;2022-07-06T00:37:09;6.53;;;3.70;;
48199;SDS011;33990;44.602;10.976;2022-07-06T00:39:37;4.68;;;3.92;;
48199;SDS011;33990;44.602;10.976;2022-07-06T00:42:04;5.93;;;3.83;;
48199;SDS011;33990;44.602;10.976;2022-07-06T00:44:32;4.30;;;3.70;;
48199;SDS011;33990;44.602;10.976;2022-07-06T00:47:00;4.57;;;3.50;;
48199;SDS011;33990;44.602;10.976;2022-07-06T00:49:27;4.03;;;3.30;;
48199;SDS011;33990;44.602;10.976;2022-07-06T00:52:13;3.97;;;3.47;;
48199;SDS011;33990;44.602;10.976;2022-07-06T00:54:42;5.38;;;3.58;;
48199;SDS011;33990;44.602;10.976;2022-07-06T00:57:10;5.88;;;3.42;;
48199;SDS011;33990;44.602;10.976;2022-07-06T00:59:37;6.95;;;3.78;;
48199;SDS011;33990;44.602;10.976;2022-07-06T01:02:05;4.88;;;3.95;;
48199;SDS011;33990;44.602;10.976;2022-07-06T01:04:32;5.40;;;4.00;;
48199;SDS011;33990;44.602;10.976;2022-07-06T01:07:00;3.70;;;2.90;;
48199;SDS011;33990;44.602;10.976;2022-07-06T01:09:28;4.47;;;3.42;;
48199;SDS011;33990;44.602;10.976;2022-07-06T01:11:56;4.68;;;3.40;;
48199;SDS011;33990;44.602;10.976;2022-07-06T01:14:23;4.18;;;3.50;;
48199;SDS011;33990;44.602;10.976;2022-07-06T01:16:51;4.90;;;3.42;;
48199;SDS011;33990;44.602;10.976;2022-07-06T01:19:19;4.10;;;3.38;;
48199;SDS011;33990;44.602;10.976;2022-07-06T01:21:46;3.83;;;3.08;;
48199;SDS011;33990;44.602;10.976;2022-07-06T01:24:13;4.78;;;3.05;;
48199;SDS011;33990;44.602;10.976;2022-07-06T01:26:41;6.05;;;3.30;;
48199;SDS011;33990;44.602;10.976;2022-07-06T01:29:08;3.83;;;3.35;;
48199;SDS011;33990;44.602;10.976;2022-07-06T01:31:44;4.63;;;3.15;;
48199;SDS011;33990;44.602;10.976;2022-07-06T01:34:15;4.93;;;3.45;;
48199;SDS011;33990;44.602;10.976;2022-07-06T01:36:43;4.80;;;3.30;;
48199;SDS011;33990;44.602;10.976;2022-07-06T01:39:11;4.60;;;3.50;;
48199;SDS011;33990;44.602;10.976;2022-07-06T01:41:38;5.65;;;3.20;;
48199;SDS011;33990;44.602;10.976;2022-07-06T01:44:06;3.42;;;3.13;;
48199;SDS011;33990;44.602;10.976;2022-07-06T01:46:35;4.18;;;3.33;;
48199;SDS011;33990;44.602;10.976;2022-07-06T01:49:03;3.80;;;3.40;;
48199;SDS011;33990;44.602;10.976;2022-07-06T01:51:33;4.22;;;3.08;;
48199;SDS011;33990;44.602;10.976;2022-07-06T01:54:00;4.45;;;3.05;;
48199;SDS011;33990;44.602;10.976;2022-07-06T01:56:29;4.35;;;2.70;;
48199;SDS011;33990;44.602;10.976;2022-07-06T01:59:00;3.72;;;3.00;;
48199;SDS011;33990;44.602;10.976;2022-07-06T02:01:28;4.80;;;3.15;;
48199;SDS011;33990;44.602;10.976;2022-07-06T02:03:55;4.15;;;2.72;;
48199;SDS011;33990;44.602;10.976;2022-07-06T02:06:23;3.50;;;2.78;;
48199;SDS011;33990;44.602;10.976;2022-07-06T02:08:50;4.07;;;2.65;;
48199;SDS011;33990;44.602;10.976;2022-07-06T02:11:19;3.58;;;2.47;;
48199;SDS011;33990;44.602;10.976;2022-07-06T02:13:46;3.90;;;2.72;;
48199;SDS011;33990;44.602;10.976;2022-07-06T02:16:14;2.72;;;2.33;;
48199;SDS011;33990;44.602;10.976;2022-07-06T02:18:41;5.80;;;2.80;;
48199;SDS011;33990;44.602;10.976;2022-07-06T02:21:09;4.95;;;2.58;;
48199;SDS011;33990;44.602;10.976;2022-07-06T02:23:36;2.88;;;2.28;;
48199;SDS011;33990;44.602;10.976;2022-07-06T02:26:04;3.75;;;2.70;;
48199;SDS011;33990;44.602;10.976;2022-07-06T02:28:31;2.60;;;2.17;;
48199;SDS011;33990;44.602;10.976;2022-07-06T02:30:59;4.25;;;2.55;;
48199;SDS011;33990;44.602;10.976;2022-07-06T02:33:28;4.13;;;2.78;;
48199;SDS011;33990;44.602;10.976;2022-07-06T02:35:55;4.00;;;2.95;;
48199;SDS011;33990;44.602;10.976;2022-07-06T02:38:23;4.32;;;3.05;;
48199;SDS011;33990;44.602;10.976;2022-07-06T02:40:51;3.35;;;2.75;;
48199;SDS011;33990;44.602;10.976;2022-07-06T02:43:19;3.28;;;2.22;;
48199;SDS011;33990;44.602;10.976;2022-07-06T02:45:46;4.28;;;2.63;;
48199;SDS011;33990;44.602;10.976;2022-07-06T02:48:15;3.97;;;2.50;;
48199;SDS011;33990;44.602;10.976;2022-07-06T02:50:42;3.97;;;2.13;;
48199;SDS011;33990;44.602;10.976;2022-07-06T02:53:10;4.18;;;2.70;;
48199;SDS011;33990;44.602;10.976;2022-07-06T02:55:37;3.83;;;2.42;;
48199;SDS011;33990;44.602;10.976;2022-07-06T02:58:06;4.32;;;2.50;;
48199;SDS011;33990;44.602;10.976;2022-07-06T03:00:33;3.78;;;2.25;;
48199;SDS011;33990;44.602;10.976;2022-07-06T03:03:02;5.07;;;2.45;;
48199;SDS011;33990;44.602;10.976;2022-07-06T03:05:31;3.40;;;2.58;;
48199;SDS011;33990;44.602;10.976;2022-07-06T03:07:58;5.70;;;2.67;;
48199;SDS011;33990;44.602;10.976;2022-07-06T03:10:26;3.05;;;2.33;;
48199;SDS011;33990;44.602;10.976;2022-07-06T03:12:55;3.17;;;2.13;;
48199;SDS011;33990;44.602;10.976;2022-07-06T03:15:22;3.70;;;2.08;;
48199;SDS011;33990;44.602;10.976;2022-07-06T03:17:50;5.18;;;2.17;;
48199;SDS011;33990;44.602;10.976;2022-07-06T03:20:18;3.05;;;2.50;;
48199;SDS011;33990;44.602;10.976;2022-07-06T03:22:47;3.92;;;2.60;;
48199;SDS011;33990;44.602;10.976;2022-07-06T03:25:15;3.13;;;2.30;;
48199;SDS011;33990;44.602;10.976;2022-07-06T03:27:43;3.25;;;2.17;;
48199;SDS011;33990;44.602;10.976;2022-07-06T03:30:12;3.72;;;2.30;;
48199;SDS011;33990;44.602;10.976;2022-07-06T03:32:45;3.97;;;2.38;;
48199;SDS011;33990;44.602;10.976;2022-07-06T03:35:14;3.97;;;2.42;;
48199;SDS011;33990;44.602;10.976;2022-07-06T03:37:43;2.83;;;2.20;;
48199;SDS011;33990;44.602;10.976;2022-07-06T03:40:10;3.38;;;2.10;;
48199;SDS011;33990;44.602;10.976;2022-07-06T03:42:38;4.00;;;2.42;;
48199;SDS011;33990;44.602;10.976;2022-07-06T03:45:08;3.30;;;2.30;;
48199;SDS011;33990;44.602;10.976;2022-07-06T03:47:39;2.47;;;2.25;;
48199;SDS011;33990;44.602;10.976;2022-07-06T03:50:08;3.17;;;2.22;;
48199;SDS011;33990;44.602;10.976;2022-07-06T03:52:37;4.35;;;2.53;;
48199;SDS011;33990;44.602;10.976;2022-07-06T03:55:09;3.10;;;2.10;;
48199;SDS011;33990;44.602;10.976;2022-07-06T03:57:39;3.42;;;2.40;;
48199;SDS011;33990;44.602;10.976;2022-07-06T04:00:11;3.78;;;2.22;;
48199;SDS011;33990;44.602;10.976;2022-07-06T04:02:45;3.50;;;2.40;;
48199;SDS011;33990;44.602;10.976;2022-07-06T04:05:19;3.30;;;2.35;;
48199;SDS011;33990;44.602;10.976;2022-07-06T04:07:52;4.82;;;2.20;;
48199;SDS011;33990;44.602;10.976;2022-07-06T04:10:24;5.10;;;2.05;;
48199;SDS011;33990;44.602;10.976;2022-07-06T04:12:52;3.80;;;2.45;;
48199;SDS011;33990;44.602;10.976;2022-07-06T04:15:19;2.80;;;2.10;;
48199;SDS011;33990;44.602;10.976;2022-07-06T04:17:47;3.53;;;2.05;;
48199;SDS011;33990;44.602;10.976;2022-07-06T04:20:31;4.30;;;2.20;;
48199;SDS011;33990;44.602;10.976;2022-07-06T04:22:58;3.58;;;1.85;;
48199;SDS011;33990;44.602;10.976;2022-07-06T04:25:27;3.03;;;2.15;;
48199;SDS011;33990;44.602;10.976;2022-07-06T04:27:58;4.03;;;2.00;;
48199;SDS011;33990;44.602;10.976;2022-07-06T04:30:27;6.40;;;2.40;;
48199;SDS011;33990;44.602;10.976;2022-07-06T04:32:54;4.22;;;2.20;;
48199;SDS011;33990;44.602;10.976;2022-07-06T04:35:24;4.40;;;2.10;;
48199;SDS011;33990;44.602;10.976;2022-07-06T04:37:53;3.15;;;2.00;;
48199;SDS011;33990;44.602;10.976;2022-07-06T04:40:21;4.28;;;1.85;;
48199;SDS011;33990;44.602;10.976;2022-07-06T04:42:53;4.97;;;2.30;;
48199;SDS011;33990;44.602;10.976;2022-07-06T04:45:21;6.60;;;2.40;;
48199;SDS011;33990;44.602;10.976;2022-07-06T04:47:49;4.05;;;2.10;;
48199;SDS011;33990;44.602;10.976;2022-07-06T04:50:18;4.85;;;2.00;;
48199;SDS011;33990;44.602;10.976;2022-07-06T04:52:46;3.90;;;2.20;;
48199;SDS011;33990;44.602;10.976;2022-07-06T04:55:14;3.58;;;2.13;;
48199;SDS011;33990;44.602;10.976;2022-07-06T04:57:42;3.75;;;2.35;;
48199;SDS011;33990;44.602;10.976;2022-07-06T05:00:11;6.72;;;2.90;;
48199;SDS011;33990;44.602;10.976;2022-07-06T05:02:40;5.53;;;2.40;;
48199;SDS011;33990;44.602;10.976;2022-07-06T05:05:08;5.00;;;2.22;;
48199;SDS011;33990;44.602;10.976;2022-07-06T05:07:39;3.67;;;2.08;;
48199;SDS011;33990;44.602;10.976;2022-07-06T05:10:07;5.25;;;2.17;;
48199;SDS011;33990;44.602;10.976;2022-07-06T05:12:38;3.80;;;2.00;;
48199;SDS011;33990;44.602;10.976;2022-07-06T05:15:06;4.90;;;2.33;;
48199;SDS011;33990;44.602;10.976;2022-07-06T05:17:34;6.45;;;1.70;;
48199;SDS011;33990;44.602;10.976;2022-07-06T05:20:03;5.07;;;2.50;;
48199;SDS011;33990;44.602;10.976;2022-07-06T05:22:35;3.03;;;1.92;;
48199;SDS011;33990;44.602;10.976;2022-07-06T05:25:12;3.38;;;2.15;;
48199;SDS011;33990;44.602;10.976;2022-07-06T05:27:41;3.75;;;1.95;;
48199;SDS011;33990;44.602;10.976;2022-07-06T05:30:09;3.15;;;1.70;;
48199;SDS011;33990;44.602;10.976;2022-07-06T05:32:37;2.78;;;1.60;;
48199;SDS011;33990;44.602;10.976;2022-07-06T05:35:05;2.45;;;1.80;;
48199;SDS011;33990;44.602;10.976;2022-07-06T05:37:54;4.30;;;2.10;;
48199;SDS011;33990;44.602;10.976;2022-07-06T05:40:22;3.20;;;1.85;;
48199;SDS011;33990;44.602;10.976;2022-07-06T05:42:50;2.10;;;1.50;;
48199;SDS011;33990;44.602;10.976;2022-07-06T05:45:17;2.25;;;1.48;;
48199;SDS011;33990;44.602;10.976;2022-07-06T05:47:45;3.05;;;1.70;;
48199;SDS011;33990;44.602;10.976;2022-07-06T05:50:34;3.35;;;1.60;;
48199;SDS011;33990;44.602;10.976;2022-07-06T05:53:02;2.47;;;1.45;;
48199;SDS011;33990;44.602;10.976;2022-07-06T05:55:41;3.72;;;1.70;;
48199;SDS011;33990;44.602;10.976;2022-07-06T05:58:09;3.55;;;1.70;;
48199;SDS011;33990;44.602;10.976;2022-07-06T06:00:37;3.97;;;1.88;;
48199;SDS011;33990;44.602;10.976;2022-07-06T06:03:11;5.47;;;1.98;;
48199;SDS011;33990;44.602;10.976;2022-07-06T06:05:38;2.88;;;1.70;;
48199;SDS011;33990;44.602;10.976;2022-07-06T06:08:08;3.58;;;1.60;;
48199;SDS011;33990;44.602;10.976;2022-07-06T06:10:35;3.72;;;1.80;;
48199;SDS011;33990;44.602;10.976;2022-07-06T06:13:07;4.40;;;1.55;;
48199;SDS011;33990;44.602;10.976;2022-07-06T06:15:35;2.25;;;1.35;;
48199;SDS011;33990;44.602;10.976;2022-07-06T06:18:04;4.28;;;1.80;;
48199;SDS011;33990;44.602;10.976;2022-07-06T06:20:31;3.17;;;1.52;;
48199;SDS011;33990;44.602;10.976;2022-07-06T06:22:59;3.15;;;1.70;;
48199;SDS011;33990;44.602;10.976;2022-07-06T06:25:28;3.72;;;1.90;;
48199;SDS011;33990;44.602;10.976;2022-07-06T06:28:03;2.50;;;1.70;;
48199;SDS011;33990;44.602;10.976;2022-07-06T06:30:33;2.53;;;1.70;;
48199;SDS011;33990;44.602;10.976;2022-07-06T06:33:19;3.00;;;1.77;;
48199;SDS011;33990;44.602;10.976;2022-07-06T06:35:50;4.50;;;1.52;;
48199;SDS011;33990;44.602;10.976;2022-07-06T06:38:20;3.63;;;1.60;;
48199;SDS011;33990;44.602;10.976;2022-07-06T06:40:49;3.13;;;1.60;;
48199;SDS011;33990;44.602;10.976;2022-07-06T06:43:17;4.50;;;1.55;;
48199;SDS011;33990;44.602;10.976;2022-07-06T06:46:10;2.67;;;1.35;;
48199;SDS011;33990;44.602;10.976;2022-07-06T06:48:38;7.30;;;2.05;;
48199;SDS011;33990;44.602;10.976;2022-07-06T06:51:05;4.70;;;1.90;;
48199;SDS011;33990;44.602;10.976;2022-07-06T06:53:32;5.65;;;1.77;;
48199;SDS011;33990;44.602;10.976;2022-07-06T06:56:06;5.25;;;1.95;;
48199;SDS011;33990;44.602;10.976;2022-07-06T06:58:34;4.80;;;1.85;;
48199;SDS011;33990;44.602;10.976;2022-07-06T07:01:21;2.58;;;1.95;;
48199;SDS011;33990;44.602;10.976;2022-07-06T07:03:50;5.28;;;1.88;;
48199;SDS011;33990;44.602;10.976;2022-07-06T07:06:17;18.50;;;2.80;;
48199;SDS011;33990;44.602;10.976;2022-07-06T07:08:45;6.70;;;2.33;;
48199;SDS011;33990;44.602;10.976;2022-07-06T07:11:12;4.55;;;2.15;;
48199;SDS011;33990;44.602;10.976;2022-07-06T07:13:39;9.20;;;2.25;;
48199;SDS011;33990;44.602;10.976;2022-07-06T07:16:07;7.45;;;2.08;;
48199;SDS011;33990;44.602;10.976;2022-07-06T07:18:34;5.28;;;2.47;;
48199;SDS011;33990;44.602;10.976;2022-07-06T07:21:02;6.75;;;2.20;;
48199;SDS011;33990;44.602;10.976;2022-07-06T07:23:29;6.35;;;1.95;;
48199;SDS011;33990;44.602;10.976;2022-07-06T07:25:57;7.40;;;3.10;;
48199;SDS011;33990;44.602;10.976;2022-07-06T07:28:24;5.82;;;2.28;;
48199;SDS011;33990;44.602;10.976;2022-07-06T07:30:52;3.50;;;1.80;;
48199;SDS011;33990;44.602;10.976;2022-07-06T07:33:20;5.93;;;2.13;;
48199;SDS011;33990;44.602;10.976;2022-07-06T07:35:48;8.38;;;2.20;;
48199;SDS011;33990;44.602;10.976;2022-07-06T07:38:15;6.32;;;2.25;;
48199;SDS011;33990;44.602;10.976;2022-07-06T07:40:42;7.90;;;2.10;;
48199;SDS011;33990;44.602;10.976;2022-07-06T07:43:09;6.32;;;1.98;;
48199;SDS011;33990;44.602;10.976;2022-07-06T07:45:37;6.13;;;1.85;;
48199;SDS011;33990;44.602;10.976;2022-07-06T07:48:05;5.20;;;1.90;;
48199;SDS011;33990;44.602;10.976;2022-07-06T07:50:32;3.30;;;1.98;;
48199;SDS011;33990;44.602;10.976;2022-07-06T07:53:01;4.70;;;1.95;;
48199;SDS011;33990;44.602;10.976;2022-07-06T07:55:29;4.13;;;1.85;;
48199;SDS011;33990;44.602;10.976;2022-07-06T07:58:07;3.85;;;1.60;;
48199;SDS011;33990;44.602;10.976;2022-07-06T08:00:36;2.78;;;1.77;;
48199;SDS011;33990;44.602;10.976;2022-07-06T08:03:03;3.15;;;1.70;;
48199;SDS011;33990;44.602;10.976;2022-07-06T08:05:31;4.13;;;1.95;;
48199;SDS011;33990;44.602;10.976;2022-07-06T08:07:58;3.55;;;1.80;;
48199;SDS011;33990;44.602;10.976;2022-07-06T08:10:25;4.32;;;2.10;;
48199;SDS011;33990;44.602;10.976;2022-07-06T08:12:53;6.78;;;1.98;;
48199;SDS011;33990;44.602;10.976;2022-07-06T08:15:21;5.53;;;1.95;;
48199;SDS011;33990;44.602;10.976;2022-07-06T08:17:49;3.45;;;1.80;;
48199;SDS011;33990;44.602;10.976;2022-07-06T08:20:16;3.35;;;1.60;;
48199;SDS011;33990;44.602;10.976;2022-07-06T08:22:44;5.22;;;2.25;;
48199;SDS011;33990;44.602;10.976;2022-07-06T08:25:11;5.53;;;2.13;;
48199;SDS011;33990;44.602;10.976;2022-07-06T08:27:39;3.75;;;1.95;;
48199;SDS011;33990;44.602;10.976;2022-07-06T08:30:08;5.35;;;2.15;;
48199;SDS011;33990;44.602;10.976;2022-07-06T08:32:37;5.72;;;2.20;;
48199;SDS011;33990;44.602;10.976;2022-07-06T08:35:25;7.15;;;2.30;;
48199;SDS011;33990;44.602;10.976;2022-07-06T08:37:52;6.22;;;2.17;;
48199;SDS011;33990;44.602;10.976;2022-07-06T08:40:20;3.33;;;1.90;;
48199;SDS011;33990;44.602;10.976;2022-07-06T08:42:47;4.72;;;2.10;;
48199;SDS011;33990;44.602;10.976;2022-07-06T08:45:20;6.20;;;2.70;;
48199;SDS011;33990;44.602;10.976;2022-07-06T08:47:48;7.30;;;2.08;;
48199;SDS011;33990;44.602;10.976;2022-07-06T08:50:17;5.15;;;2.25;;
48199;SDS011;33990;44.602;10.976;2022-07-06T08:52:45;6.70;;;2.35;;
48199;SDS011;33990;44.602;10.976;2022-07-06T08:55:14;5.10;;;2.38;;
48199;SDS011;33990;44.602;10.976;2022-07-06T08:57:44;5.20;;;2.30;;
48199;SDS011;33990;44.602;10.976;2022-07-06T09:00:13;6.07;;;2.35;;
48199;SDS011;33990;44.602;10.976;2022-07-06T09:02:41;6.38;;;2.35;;
48199;SDS011;33990;44.602;10.976;2022-07-06T09:05:11;5.05;;;2.58;;
48199;SDS011;33990;44.602;10.976;2022-07-06T09:07:42;6.90;;;2.55;;
48199;SDS011;33990;44.602;10.976;2022-07-06T09:10:26;5.13;;;2.40;;
48199;SDS011;33990;44.602;10.976;2022-07-06T09:13:01;5.18;;;2.40;;
48199;SDS011;33990;44.602;10.976;2022-07-06T09:15:30;4.80;;;2.53;;
48199;SDS011;33990;44.602;10.976;2022-07-06T09:17:59;4.15;;;2.50;;
48199;SDS011;33990;44.602;10.976;2022-07-06T09:20:27;6.32;;;2.78;;
48199;SDS011;33990;44.602;10.976;2022-07-06T09:22:58;5.10;;;2.40;;
48199;SDS011;33990;44.602;10.976;2022-07-06T09:25:27;3.53;;;2.50;;
48199;SDS011;33990;44.602;10.976;2022-07-06T09:27:56;7.57;;;2.83;;
48199;SDS011;33990;44.602;10.976;2022-07-06T09:30:25;4.82;;;2.50;;
48199;SDS011;33990;44.602;10.976;2022-07-06T09:32:57;3.47;;;2.35;;
48199;SDS011;33990;44.602;10.976;2022-07-06T09:35:26;6.97;;;2.78;;
48199;SDS011;33990;44.602;10.976;2022-07-06T09:38:02;4.43;;;2.70;;
48199;SDS011;33990;44.602;10.976;2022-07-06T09:40:31;5.25;;;2.65;;
48199;SDS011;33990;44.602;10.976;2022-07-06T09:43:19;3.80;;;2.47;;
48199;SDS011;33990;44.602;10.976;2022-07-06T09:45:49;5.82;;;3.15;;
48199;SDS011;33990;44.602;10.976;2022-07-06T09:48:18;5.85;;;2.60;;
48199;SDS011;33990;44.602;10.976;2022-07-06T09:50:52;4.40;;;2.38;;
48199;SDS011;33990;44.602;10.976;2022-07-06T09:53:20;4.53;;;2.58;;
48199;SDS011;33990;44.602;10.976;2022-07-06T09:55:52;4.60;;;2.42;;
48199;SDS011;33990;44.602;10.976;2022-07-06T09:58:21;3.17;;;2.53;;
48199;SDS011;33990;44.602;10.976;2022-07-06T10:01:09;8.05;;;2.53;;
48199;SDS011;33990;44.602;10.976;2022-07-06T10:03:37;8.20;;;3.10;;
48199;SDS011;33990;44.602;10.976;2022-07-06T10:06:05;7.88;;;3.35;;
48199;SDS011;33990;44.602;10.976;2022-07-06T10:08:33;4.82;;;2.83;;
48199;SDS011;33990;44.602;10.976;2022-07-06T10:11:01;4.35;;;2.95;;
48199;SDS011;33990;44.602;10.976;2022-07-06T10:13:29;3.65;;;2.70;;
48199;SDS011;33990;44.602;10.976;2022-07-06T10:15:57;7.47;;;3.05;;
48199;SDS011;33990;44.602;10.976;2022-07-06T10:18:26;5.22;;;3.08;;
48199;SDS011;33990;44.602;10.976;2022-07-06T10:20:55;3.70;;;2.47;;
48199;SDS011;33990;44.602;10.976;2022-07-06T10:23:22;4.47;;;2.72;;
48199;SDS011;33990;44.602;10.976;2022-07-06T10:25:51;6.38;;;2.90;;
48199;SDS011;33990;44.602;10.976;2022-07-06T10:28:18;4.13;;;2.75;;
48199;SDS011;33990;44.602;10.976;2022-07-06T10:30:47;4.05;;;3.20;;
48199;SDS011;33990;44.602;10.976;2022-07-06T10:33:16;6.53;;;3.08;;
48199;SDS011;33990;44.602;10.976;2022-07-06T10:35:47;6.53;;;3.40;;
48199;SDS011;33990;44.602;10.976;2022-07-06T10:38:16;4.57;;;3.28;;
48199;SDS011;33990;44.602;10.976;2022-07-06T10:40:44;4.90;;;2.78;;
48199;SDS011;33990;44.602;10.976;2022-07-06T10:43:33;6.13;;;3.10;;
48199;SDS011;33990;44.602;10.976;2022-07-06T10:46:05;4.28;;;2.95;;
48199;SDS011;33990;44.602;10.976;2022-07-06T10:48:35;7.05;;;3.33;;
48199;SDS011;33990;44.602;10.976;2022-07-06T10:51:06;4.78;;;3.13;;
48199;SDS011;33990;44.602;10.976;2022-07-06T10:53:36;4.13;;;2.63;;
48199;SDS011;33990;44.602;10.976;2022-07-06T10:56:08;5.60;;;3.45;;
48199;SDS011;33990;44.602;10.976;2022-07-06T10:58:37;6.13;;;3.55;;
48199;SDS011;33990;44.602;10.976;2022-07-06T11:01:14;4.65;;;2.90;;
48199;SDS011;33990;44.602;10.976;2022-07-06T11:03:47;5.00;;;3.70;;
48199;SDS011;33990;44.602;10.976;2022-07-06T11:06:24;4.07;;;3.20;;
48199;SDS011;33990;44.602;10.976;2022-07-06T11:16:23;4.78;;;3.00;;
48199;SDS011;33990;44.602;10.976;2022-07-06T11:19:00;4.78;;;3.08;;
48199;SDS011;33990;44.602;10.976;2022-07-06T11:24:15;5.10;;;3.13;;
48199;SDS011;33990;44.602;10.976;2022-07-06T11:26:45;6.72;;;3.30;;
48199;SDS011;33990;44.602;10.976;2022-07-06T11:29:14;6.63;;;3.15;;
48199;SDS011;33990;44.602;10.976;2022-07-06T11:31:45;3.65;;;3.15;;
48199;SDS011;33990;44.602;10.976;2022-07-06T11:34:18;7.32;;;3.63;;
48199;SDS011;33990;44.602;10.976;2022-07-06T11:36:47;8.15;;;3.40;;
48199;SDS011;33990;44.602;10.976;2022-07-06T11:39:14;4.65;;;2.97;;
48199;SDS011;33990;44.602;10.976;2022-07-06T11:41:42;4.80;;;3.15;;
48199;SDS011;33990;44.602;10.976;2022-07-06T11:44:17;6.32;;;3.42;;
48199;SDS011;33990;44.602;10.976;2022-07-06T11:46:45;7.85;;;3.13;;
48199;SDS011;33990;44.602;10.976;2022-07-06T11:49:12;7.38;;;2.97;;
48199;SDS011;33990;44.602;10.976;2022-07-06T11:51:40;7.10;;;3.70;;
48199;SDS011;33990;44.602;10.976;2022-07-06T11:54:12;4.65;;;3.15;;
48199;SDS011;33990;44.602;10.976;2022-07-06T11:56:54;4.70;;;3.47;;
48199;SDS011;33990;44.602;10.976;2022-07-06T11:59:29;5.18;;;3.10;;
48199;SDS011;33990;44.602;10.976;2022-07-06T12:02:01;7.32;;;2.95;;
48199;SDS011;33990;44.602;10.976;2022-07-06T12:04:30;6.20;;;3.20;;
48199;SDS011;33990;44.602;10.976;2022-07-06T12:06:59;7.95;;;3.50;;
48199;SDS011;33990;44.602;10.976;2022-07-06T12:11:59;5.63;;;3.47;;
48199;SDS011;33990;44.602;10.976;2022-07-06T12:14:31;4.50;;;2.47;;
48199;SDS011;33990;44.602;10.976;2022-07-06T12:17:04;4.97;;;2.65;;
48199;SDS011;33990;44.602;10.976;2022-07-06T12:19:37;4.03;;;2.70;;
48199;SDS011;33990;44.602;10.976;2022-07-06T12:22:05;6.50;;;3.15;;
48199;SDS011;33990;44.602;10.976;2022-07-06T12:24:35;6.18;;;2.92;;
48199;SDS011;33990;44.602;10.976;2022-07-06T12:27:14;4.75;;;2.90;;
48199;SDS011;33990;44.602;10.976;2022-07-06T12:29:44;5.53;;;2.70;;
48199;SDS011;33990;44.602;10.976;2022-07-06T12:34:43;7.82;;;2.70;;
48199;SDS011;33990;44.602;10.976;2022-07-06T12:37:11;5.20;;;3.03;;
48199;SDS011;33990;44.602;10.976;2022-07-06T12:39:40;3.67;;;2.63;;
48199;SDS011;33990;44.602;10.976;2022-07-06T12:42:09;4.65;;;2.47;;
48199;SDS011;33990;44.602;10.976;2022-07-06T12:44:45;5.03;;;2.63;;
48199;SDS011;33990;44.602;10.976;2022-07-06T12:47:16;5.00;;;3.03;;
48199;SDS011;33990;44.602;10.976;2022-07-06T12:49:45;5.82;;;2.85;;
48199;SDS011;33990;44.602;10.976;2022-07-06T12:52:14;4.50;;;3.08;;
48199;SDS011;33990;44.602;10.976;2022-07-06T12:57:20;5.28;;;2.72;;
48199;SDS011;33990;44.602;10.976;2022-07-06T13:05:23;4.50;;;2.97;;
48199;SDS011;33990;44.602;10.976;2022-07-06T13:07:58;4.70;;;2.67;;
48199;SDS011;33990;44.602;10.976;2022-07-06T13:10:25;4.97;;;2.78;;
48199;SDS011;33990;44.602;10.976;2022-07-06T13:12:53;4.15;;;2.60;;
48199;SDS011;33990;44.602;10.976;2022-07-06T13:15:20;6.22;;;2.83;;
48199;SDS011;33990;44.602;10.976;2022-07-06T13:17:47;5.97;;;2.65;;
48199;SDS011;33990;44.602;10.976;2022-07-06T13:20:15;4.47;;;2.15;;
48199;SDS011;33990;44.602;10.976;2022-07-06T13:22:46;5.00;;;2.72;;
48199;SDS011;33990;44.602;10.976;2022-07-06T13:25:13;3.95;;;2.45;;
48199;SDS011;33990;44.602;10.976;2022-07-06T13:27:41;3.25;;;2.33;;
48199;SDS011;33990;44.602;10.976;2022-07-06T13:30:09;4.53;;;2.40;;
48199;SDS011;33990;44.602;10.976;2022-07-06T13:32:37;3.22;;;2.38;;
48199;SDS011;33990;44.602;10.976;2022-07-06T13:35:06;4.00;;;2.20;;
48199;SDS011;33990;44.602;10.976;2022-07-06T13:37:34;3.50;;;2.42;;
48199;SDS011;33990;44.602;10.976;2022-07-06T13:40:02;3.05;;;2.30;;
48199;SDS011;33990;44.602;10.976;2022-07-06T13:42:29;3.17;;;2.20;;
48199;SDS011;33990;44.602;10.976;2022-07-06T13:44:57;3.13;;;2.40;;
48199;SDS011;33990;44.602;10.976;2022-07-06T13:47:24;4.07;;;2.92;;
48199;SDS011;33990;44.602;10.976;2022-07-06T13:49:51;3.05;;;2.15;;
48199;SDS011;33990;44.602;10.976;2022-07-06T13:52:19;3.17;;;2.17;;
48199;SDS011;33990;44.602;10.976;2022-07-06T13:54:46;3.75;;;2.50;;
48199;SDS011;33990;44.602;10.976;2022-07-06T13:57:13;3.75;;;2.53;;
48199;SDS011;33990;44.602;10.976;2022-07-06T13:59:41;4.60;;;2.45;;
48199;SDS011;33990;44.602;10.976;2022-07-06T14:02:09;3.97;;;2.60;;
48199;SDS011;33990;44.602;10.976;2022-07-06T14:04:38;4.30;;;2.05;;
48199;SDS011;33990;44.602;10.976;2022-07-06T14:07:05;3.40;;;2.17;;
48199;SDS011;33990;44.602;10.976;2022-07-06T14:09:33;3.65;;;2.25;;
48199;SDS011;33990;44.602;10.976;2022-07-06T14:12:00;4.00;;;2.60;;
48199;SDS011;33990;44.602;10.976;2022-07-06T14:14:28;4.05;;;2.30;;
48199;SDS011;33990;44.602;10.976;2022-07-06T14:16:56;2.88;;;2.25;;
48199;SDS011;33990;44.602;10.976;2022-07-06T14:19:23;2.75;;;2.20;;
48199;SDS011;33990;44.602;10.976;2022-07-06T14:21:51;2.38;;;2.10;;
48199;SDS011;33990;44.602;10.976;2022-07-06T14:24:18;3.28;;;2.28;;
48199;SDS011;33990;44.602;10.976;2022-07-06T14:26:46;3.00;;;2.17;;
48199;SDS011;33990;44.602;10.976;2022-07-06T14:29:13;3.15;;;2.08;;
48199;SDS011;33990;44.602;10.976;2022-07-06T14:31:40;3.42;;;2.33;;
48199;SDS011;33990;44.602;10.976;2022-07-06T14:34:08;2.42;;;2.10;;
48199;SDS011;33990;44.602;10.976;2022-07-06T14:36:35;3.67;;;2.30;;
48199;SDS011;33990;44.602;10.976;2022-07-06T14:39:05;4.32;;;2.25;;
48199;SDS011;33990;44.602;10.976;2022-07-06T14:41:32;3.10;;;2.22;;
48199;SDS011;33990;44.602;10.976;2022-07-06T14:43:59;3.22;;;2.00;;
48199;SDS011;33990;44.602;10.976;2022-07-06T14:46:27;2.63;;;1.92;;
48199;SDS011;33990;44.602;10.976;2022-07-06T14:48:54;2.67;;;2.20;;
48199;SDS011;33990;44.602;10.976;2022-07-06T14:51:22;3.92;;;2.22;;
48199;SDS011;33990;44.602;10.976;2022-07-06T14:53:49;3.47;;;2.13;;
48199;SDS011;33990;44.602;10.976;2022-07-06T14:56:17;2.70;;;2.40;;
48199;SDS011;33990;44.602;10.976;2022-07-06T14:58:44;2.97;;;2.08;;
48199;SDS011;33990;44.602;10.976;2022-07-06T15:01:31;2.65;;;2.00;;
48199;SDS011;33990;44.602;10.976;2022-07-06T15:03:59;2.67;;;2.40;;
48199;SDS011;33990;44.602;10.976;2022-07-06T15:06:26;3.40;;;2.08;;
48199;SDS011;33990;44.602;10.976;2022-07-06T15:09:14;2.53;;;2.10;;